sensor_id;sensor_type;location;lat;lon;timestamp;pressure;altitude;pressure_sealevel;temperature;humidity
49451;BME280;35336;48.400;10.886;2023-04-01T00:00:04;95029.41;;;7.07;78.87
49451;BME280;35336;48.400;10.886;2023-04-01T00:00:20;95028.38;;;7.01;79.08
49451;BME280;35336;48.400;10.886;2023-04-01T00:00:36;95027.75;;;7.06;79.02
49451;BME280;35336;48.400;10.886;2023-04-01T00:00:55;95025.50;;;7.09;78.99
49451;BME280;35336;48.400;10.886;2023-04-01T00:01:14;95021.84;;;7.04;78.94
49451;BME280;35336;48.400;10.886;2023-04-01T00:01:29;95020.22;;;7.03;79.04
49451;BME280;35336;48.400;10.886;2023-04-01T00:01:45;95025.13;;;6.99;79.06
49451;BME280;35336;48.400;10.886;2023-04-01T00:02:00;95038.97;;;7.08;79.23
49451;BME280;35336;48.400;10.886;2023-04-01T00:02:15;95014.94;;;6.96;79.11
49451;BME280;35336;48.400;10.886;2023-04-01T00:02:31;95021.88;;;6.97;79.35
49451;BME280;35336;48.400;10.886;2023-04-01T00:02:46;95033.88;;;7.06;79.36
49451;BME280;35336;48.400;10.886;2023-04-01T00:03:01;94998.63;;;6.92;79.46
49451;BME280;35336;48.400;10.886;2023-04-01T00:03:17;95028.38;;;7.08;79.56
49451;BME280;35336;48.400;10.886;2023-04-01T00:03:33;95014.91;;;7.03;79.24
49451;BME280;35336;48.400;10.886;2023-04-01T00:03:48;95010.03;;;6.99;79.63
49451;BME280;35336;48.400;10.886;2023-04-01T00:04:04;95034.69;;;7.07;79.70
49451;BME280;35336;48.400;10.886;2023-04-01T00:04:19;95015.75;;;6.96;79.61
49451;BME280;35336;48.400;10.886;2023-04-01T00:04:34;94999.88;;;6.90;79.75
49451;BME280;35336;48.400;10.886;2023-04-01T00:04:50;95040.19;;;7.05;79.74
49451;BME280;35336;48.400;10.886;2023-04-01T00:05:05;95000.06;;;6.88;79.64
49451;BME280;35336;48.400;10.886;2023-04-01T00:05:21;95033.28;;;6.97;80.03
49451;BME280;35336;48.400;10.886;2023-04-01T00:05:37;95027.16;;;7.04;79.71
49451;BME280;35336;48.400;10.886;2023-04-01T00:05:53;95005.56;;;6.93;79.73
49451;BME280;35336;48.400;10.886;2023-04-01T00:06:13;95025.13;;;7.06;79.76
49451;BME280;35336;48.400;10.886;2023-04-01T00:06:28;95029.59;;;7.05;79.51
49451;BME280;35336;48.400;10.886;2023-04-01T00:06:44;95025.31;;;7.11;79.87
49451;BME280;35336;48.400;10.886;2023-04-01T00:06:59;95012.47;;;7.01;79.57
49451;BME280;35336;48.400;10.886;2023-04-01T00:07:15;95034.88;;;7.12;79.83
49451;BME280;35336;48.400;10.886;2023-04-01T00:07:30;95020.22;;;7.03;79.86
49451;BME280;35336;48.400;10.886;2023-04-01T00:07:45;95026.31;;;7.10;79.37
49451;BME280;35336;48.400;10.886;2023-04-01T00:08:00;95022.03;;;7.09;79.48
49451;BME280;35336;48.400;10.886;2023-04-01T00:08:16;95014.91;;;7.03;79.65
49451;BME280;35336;48.400;10.886;2023-04-01T00:08:31;95038.56;;;7.11;79.87
49451;BME280;35336;48.400;10.886;2023-04-01T00:08:47;95012.06;;;6.97;79.73
49451;BME280;35336;48.400;10.886;2023-04-01T00:09:02;95012.06;;;7.04;79.93
49451;BME280;35336;48.400;10.886;2023-04-01T00:09:18;95027.16;;;7.10;79.90
49451;BME280;35336;48.400;10.886;2023-04-01T00:09:34;95026.94;;;7.12;80.09
49451;BME280;35336;48.400;10.886;2023-04-01T00:09:49;95028.38;;;7.08;80.00
49451;BME280;35336;48.400;10.886;2023-04-01T00:10:06;95032.06;;;7.07;80.04
49451;BME280;35336;48.400;10.886;2023-04-01T00:10:22;95025.13;;;7.06;80.18
49451;BME280;35336;48.400;10.886;2023-04-01T00:10:38;95014.13;;;6.95;80.06
49451;BME280;35336;48.400;10.886;2023-04-01T00:10:54;95005.97;;;6.90;80.26
49451;BME280;35336;48.400;10.886;2023-04-01T00:11:09;95014.72;;;7.04;80.25
49451;BME280;35336;48.400;10.886;2023-04-01T00:11:24;95014.13;;;6.95;80.80
49451;BME280;35336;48.400;10.886;2023-04-01T00:11:40;95008.81;;;6.95;80.67
49451;BME280;35336;48.400;10.886;2023-04-01T00:11:55;95022.88;;;7.03;80.45
49451;BME280;35336;48.400;10.886;2023-04-01T00:12:11;95013.69;;;7.05;80.58
49451;BME280;35336;48.400;10.886;2023-04-01T00:12:26;95007.59;;;6.98;80.39
49451;BME280;35336;48.400;10.886;2023-04-01T00:12:41;95014.13;;;6.95;80.46
49451;BME280;35336;48.400;10.886;2023-04-01T00:12:57;95004.78;;;6.86;80.40
49451;BME280;35336;48.400;10.886;2023-04-01T00:13:12;94996.00;;;6.92;80.46
49451;BME280;35336;48.400;10.886;2023-04-01T00:13:28;95021.44;;;7.00;80.33
49451;BME280;35336;48.400;10.886;2023-04-01T00:13:44;95008.84;;;6.89;80.58
49451;BME280;35336;48.400;10.886;2023-04-01T00:13:59;95019.63;;;7.01;80.57
49451;BME280;35336;48.400;10.886;2023-04-01T00:14:14;95009.44;;;6.91;80.85
49451;BME280;35336;48.400;10.886;2023-04-01T00:14:30;94996.81;;;6.79;81.37
49451;BME280;35336;48.400;10.886;2023-04-01T00:14:45;95014.53;;;6.92;81.10
49451;BME280;35336;48.400;10.886;2023-04-01T00:15:01;95030.41;;;6.99;81.19
49451;BME280;35336;48.400;10.886;2023-04-01T00:15:16;94993.78;;;6.82;81.32
49451;BME280;35336;48.400;10.886;2023-04-01T00:15:31;95008.22;;;6.93;81.29
49451;BME280;35336;48.400;10.886;2023-04-01T00:15:47;95023.88;;;7.02;81.22
49451;BME280;35336;48.400;10.886;2023-04-01T00:16:03;95023.47;;;7.05;81.02
49451;BME280;35336;48.400;10.886;2023-04-01T00:16:18;95022.88;;;7.03;81.09
49451;BME280;35336;48.400;10.886;2023-04-01T00:16:34;95008.19;;;7.00;81.04
49451;BME280;35336;48.400;10.886;2023-04-01T00:16:49;95021.84;;;7.04;81.47
49451;BME280;35336;48.400;10.886;2023-04-01T00:17:04;94994.53;;;6.96;81.33
49451;BME280;35336;48.400;10.886;2023-04-01T00:17:20;95009.22;;;7.06;81.40
49451;BME280;35336;48.400;10.886;2023-04-01T00:17:35;95003.13;;;6.98;80.99
49451;BME280;35336;48.400;10.886;2023-04-01T00:17:50;95000.03;;;7.02;81.12
49451;BME280;35336;48.400;10.886;2023-04-01T00:18:06;95010.44;;;7.03;80.96
49451;BME280;35336;48.400;10.886;2023-04-01T00:18:21;95018.97;;;7.12;80.70
49451;BME280;35336;48.400;10.886;2023-04-01T00:18:37;95013.06;;;7.10;80.73
49451;BME280;35336;48.400;10.886;2023-04-01T00:18:52;94989.28;;;6.90;80.99
49451;BME280;35336;48.400;10.886;2023-04-01T00:19:08;95008.59;;;7.04;80.96
49451;BME280;35336;48.400;10.886;2023-04-01T00:19:23;95017.34;;;7.11;80.84
49451;BME280;35336;48.400;10.886;2023-04-01T00:19:38;94998.22;;;7.02;80.96
49451;BME280;35336;48.400;10.886;2023-04-01T00:19:57;95016.94;;;7.14;80.94
49451;BME280;35336;48.400;10.886;2023-04-01T00:20:12;95013.69;;;7.12;81.04
49451;BME280;35336;48.400;10.886;2023-04-01T00:20:28;95016.34;;;7.12;80.90
49451;BME280;35336;48.400;10.886;2023-04-01T00:20:45;95006.75;;;7.11;80.99
49451;BME280;35336;48.400;10.886;2023-04-01T00:21:00;95000.25;;;7.00;80.89
49451;BME280;35336;48.400;10.886;2023-04-01T00:21:16;95009.00;;;7.07;80.38
49451;BME280;35336;48.400;10.886;2023-04-01T00:21:32;95015.31;;;7.13;80.54
49451;BME280;35336;48.400;10.886;2023-04-01T00:21:47;95016.13;;;7.13;80.63
49451;BME280;35336;48.400;10.886;2023-04-01T00:22:03;95004.94;;;7.05;80.88
49451;BME280;35336;48.400;10.886;2023-04-01T00:22:18;95024.69;;;7.15;80.55
49451;BME280;35336;48.400;10.886;2023-04-01T00:22:33;95015.94;;;7.15;80.40
49451;BME280;35336;48.400;10.886;2023-04-01T00:22:49;95011.44;;;7.15;80.51
49451;BME280;35336;48.400;10.886;2023-04-01T00:23:04;95024.28;;;7.19;80.05
49451;BME280;35336;48.400;10.886;2023-04-01T00:23:20;95006.34;;;7.07;79.87
49451;BME280;35336;48.400;10.886;2023-04-01T00:23:35;95018.19;;;7.11;79.95
49451;BME280;35336;48.400;10.886;2023-04-01T00:23:50;95011.03;;;7.12;80.10
49451;BME280;35336;48.400;10.886;2023-04-01T00:24:06;95014.09;;;7.15;80.17
49451;BME280;35336;48.400;10.886;2023-04-01T00:24:21;95017.75;;;7.14;79.68
49451;BME280;35336;48.400;10.886;2023-04-01T00:24:38;95014.47;;;7.12;79.97
49451;BME280;35336;48.400;10.886;2023-04-01T00:24:53;95003.91;;;7.06;79.71
49451;BME280;35336;48.400;10.886;2023-04-01T00:25:09;95022.84;;;7.16;79.66
49451;BME280;35336;48.400;10.886;2023-04-01T00:25:24;95007.75;;;7.10;79.77
49451;BME280;35336;48.400;10.886;2023-04-01T00:25:40;94993.94;;;6.94;79.78
49451;BME280;35336;48.400;10.886;2023-04-01T00:25:55;94987.81;;;6.94;79.52
49451;BME280;35336;48.400;10.886;2023-04-01T00:26:11;95021.63;;;7.12;79.72
49451;BME280;35336;48.400;10.886;2023-04-01T00:26:26;95006.78;;;7.04;79.67
49451;BME280;35336;48.400;10.886;2023-04-01T00:26:42;95027.94;;;7.11;79.57
49451;BME280;35336;48.400;10.886;2023-04-01T00:26:57;95023.47;;;7.11;79.33
49451;BME280;35336;48.400;10.886;2023-04-01T00:27:12;95003.09;;;7.05;79.57
49451;BME280;35336;48.400;10.886;2023-04-01T00:27:27;95002.28;;;7.05;79.51
49451;BME280;35336;48.400;10.886;2023-04-01T00:27:43;95000.88;;;7.02;79.57
49451;BME280;35336;48.400;10.886;2023-04-01T00:27:58;95013.28;;;7.15;79.26
49451;BME280;35336;48.400;10.886;2023-04-01T00:28:18;95002.28;;;7.05;79.46
49451;BME280;35336;48.400;10.886;2023-04-01T00:28:34;95000.88;;;7.02;79.48
49451;BME280;35336;48.400;10.886;2023-04-01T00:28:50;95008.38;;;7.05;79.67
49451;BME280;35336;48.400;10.886;2023-04-01T00:29:05;95024.91;;;7.14;79.33
49451;BME280;35336;48.400;10.886;2023-04-01T00:29:20;95018.97;;;7.12;79.71
49451;BME280;35336;48.400;10.886;2023-04-01T00:29:36;95009.22;;;7.06;79.68
49451;BME280;35336;48.400;10.886;2023-04-01T00:29:51;95018.19;;;7.11;79.64
49451;BME280;35336;48.400;10.886;2023-04-01T00:30:07;95013.47;;;7.13;79.59
49451;BME280;35336;48.400;10.886;2023-04-01T00:30:23;95011.25;;;7.10;79.83
49451;BME280;35336;48.400;10.886;2023-04-01T00:30:38;95018.97;;;7.12;79.91
49451;BME280;35336;48.400;10.886;2023-04-01T00:30:54;95014.50;;;7.06;79.90
49451;BME280;35336;48.400;10.886;2023-04-01T00:31:10;95004.75;;;6.99;79.50
49451;BME280;35336;48.400;10.886;2023-04-01T00:31:25;95007.97;;;7.02;79.58
49451;BME280;35336;48.400;10.886;2023-04-01T00:31:41;95022.44;;;7.12;80.10
49451;BME280;35336;48.400;10.886;2023-04-01T00:31:57;95007.59;;;7.05;79.53
49451;BME280;35336;48.400;10.886;2023-04-01T00:32:13;95007.59;;;7.05;79.58
49451;BME280;35336;48.400;10.886;2023-04-01T00:32:29;95014.91;;;7.09;79.72
49451;BME280;35336;48.400;10.886;2023-04-01T00:32:44;95018.19;;;7.11;79.38
49451;BME280;35336;48.400;10.886;2023-04-01T00:32:59;94991.28;;;6.94;79.57
49451;BME280;35336;48.400;10.886;2023-04-01T00:33:15;95013.50;;;7.07;79.59
49451;BME280;35336;48.400;10.886;2023-04-01T00:33:31;95020.63;;;7.13;79.78
49451;BME280;35336;48.400;10.886;2023-04-01T00:33:46;95022.25;;;7.14;79.69
49451;BME280;35336;48.400;10.886;2023-04-01T00:34:01;94980.91;;;6.93;79.56
49451;BME280;35336;48.400;10.886;2023-04-01T00:34:17;95016.50;;;7.17;79.70
49451;BME280;35336;48.400;10.886;2023-04-01T00:34:32;95017.53;;;7.16;79.47
49451;BME280;35336;48.400;10.886;2023-04-01T00:34:51;94997.78;;;7.05;79.88
49451;BME280;35336;48.400;10.886;2023-04-01T00:35:07;95020.41;;;7.14;79.75
49451;BME280;35336;48.400;10.886;2023-04-01T00:35:22;95011.25;;;7.10;79.75
49451;BME280;35336;48.400;10.886;2023-04-01T00:35:38;95017.97;;;7.13;79.50
49451;BME280;35336;48.400;10.886;2023-04-01T00:35:53;94988.63;;;6.94;79.74
49451;BME280;35336;48.400;10.886;2023-04-01T00:36:13;95006.56;;;7.06;79.66
49451;BME280;35336;48.400;10.886;2023-04-01T00:36:29;94979.69;;;6.89;79.35
49451;BME280;35336;48.400;10.886;2023-04-01T00:36:45;95013.28;;;7.15;79.50
49451;BME280;35336;48.400;10.886;2023-04-01T00:37:00;95008.78;;;7.09;79.78
49451;BME280;35336;48.400;10.886;2023-04-01T00:37:15;95018.19;;;7.11;79.60
49451;BME280;35336;48.400;10.886;2023-04-01T00:37:31;95010.63;;;7.08;79.70
49451;BME280;35336;48.400;10.886;2023-04-01T00:37:49;95008.59;;;7.04;79.73
49451;BME280;35336;48.400;10.886;2023-04-01T00:38:04;95012.47;;;7.08;80.01
49451;BME280;35336;48.400;10.886;2023-04-01T00:38:20;95015.31;;;7.06;80.04
49451;BME280;35336;48.400;10.886;2023-04-01T00:38:36;95004.31;;;7.03;79.82
49451;BME280;35336;48.400;10.886;2023-04-01T00:38:51;95012.47;;;7.08;79.73
49451;BME280;35336;48.400;10.886;2023-04-01T00:39:07;95010.84;;;7.07;79.80
49451;BME280;35336;48.400;10.886;2023-04-01T00:39:22;95019.81;;;7.06;79.52
49451;BME280;35336;48.400;10.886;2023-04-01T00:39:37;95007.38;;;7.06;79.52
49451;BME280;35336;48.400;10.886;2023-04-01T00:39:53;95018.78;;;7.13;79.62
49451;BME280;35336;48.400;10.886;2023-04-01T00:40:22;95005.94;;;7.04;79.48
49451;BME280;35336;48.400;10.886;2023-04-01T00:40:40;95016.34;;;7.12;79.49
49451;BME280;35336;48.400;10.886;2023-04-01T00:40:57;95010.84;;;7.00;79.38
49451;BME280;35336;48.400;10.886;2023-04-01T00:41:14;95010.84;;;7.07;79.04
49451;BME280;35336;48.400;10.886;2023-04-01T00:41:30;95012.47;;;7.08;78.94
49451;BME280;35336;48.400;10.886;2023-04-01T00:41:45;95013.69;;;7.12;78.89
49451;BME280;35336;48.400;10.886;2023-04-01T00:42:02;95003.47;;;7.09;78.85
49451;BME280;35336;48.400;10.886;2023-04-01T00:42:18;95013.47;;;7.13;79.03
49451;BME280;35336;48.400;10.886;2023-04-01T00:42:33;94981.50;;;6.95;78.87
49451;BME280;35336;48.400;10.886;2023-04-01T00:42:49;95018.59;;;7.15;78.93
49451;BME280;35336;48.400;10.886;2023-04-01T00:43:17;95015.50;;;7.18;79.03
49451;BME280;35336;48.400;10.886;2023-04-01T00:43:33;95001.22;;;7.12;79.09
49451;BME280;35336;48.400;10.886;2023-04-01T00:43:50;94990.03;;;7.10;78.62
49451;BME280;35336;48.400;10.886;2023-04-01T00:44:23;95000.25;;;7.07;79.03
49451;BME280;35336;48.400;10.886;2023-04-01T00:44:39;95018.16;;;7.18;78.83
49451;BME280;35336;48.400;10.886;2023-04-01T00:44:55;94998.00;;;7.10;78.86
49451;BME280;35336;48.400;10.886;2023-04-01T00:45:41;95014.88;;;7.16;78.91
49451;BME280;35336;48.400;10.886;2023-04-01T00:45:56;95002.47;;;7.10;78.77
49451;BME280;35336;48.400;10.886;2023-04-01T00:46:12;94971.72;;;6.95;78.82
49451;BME280;35336;48.400;10.886;2023-04-01T00:46:27;95013.88;;;7.17;78.75
49451;BME280;35336;48.400;10.886;2023-04-01T00:46:43;94984.16;;;6.95;79.01
49451;BME280;35336;48.400;10.886;2023-04-01T00:46:59;94991.69;;;6.98;78.97
49451;BME280;35336;48.400;10.886;2023-04-01T00:47:14;95004.53;;;7.01;79.23
49451;BME280;35336;48.400;10.886;2023-04-01T00:47:30;95013.91;;;7.10;79.21
49451;BME280;35336;48.400;10.886;2023-04-01T00:47:45;94980.50;;;6.89;79.18
49451;BME280;35336;48.400;10.886;2023-04-01T00:48:06;95000.66;;;7.04;78.93
49451;BME280;35336;48.400;10.886;2023-04-01T00:48:26;94997.38;;;7.02;79.34
49451;BME280;35336;48.400;10.886;2023-04-01T00:48:48;95003.91;;;7.06;79.04
49451;BME280;35336;48.400;10.886;2023-04-01T00:49:06;95011.88;;;7.06;79.29
49451;BME280;35336;48.400;10.886;2023-04-01T00:49:31;95011.44;;;7.09;79.33
49451;BME280;35336;48.400;10.886;2023-04-01T00:49:51;95014.31;;;7.07;79.27
49451;BME280;35336;48.400;10.886;2023-04-01T00:50:07;95017.16;;;7.06;79.37
49451;BME280;35336;48.400;10.886;2023-04-01T00:50:23;95005.75;;;6.98;79.56
49451;BME280;35336;48.400;10.886;2023-04-01T00:50:42;94981.31;;;6.83;79.04
49451;BME280;35336;48.400;10.886;2023-04-01T00:51:07;95006.78;;;6.97;79.20
49451;BME280;35336;48.400;10.886;2023-04-01T00:51:27;95006.78;;;7.04;79.09
49451;BME280;35336;48.400;10.886;2023-04-01T00:51:46;95027.56;;;7.07;79.24
49451;BME280;35336;48.400;10.886;2023-04-01T00:52:03;95013.50;;;7.07;79.02
49451;BME280;35336;48.400;10.886;2023-04-01T00:52:22;94992.50;;;6.98;79.25
49451;BME280;35336;48.400;10.886;2023-04-01T00:52:38;95020.22;;;7.09;79.45
49451;BME280;35336;48.400;10.886;2023-04-01T00:52:53;95035.91;;;7.11;79.35
49451;BME280;35336;48.400;10.886;2023-04-01T00:53:09;94979.88;;;6.87;79.30
49451;BME280;35336;48.400;10.886;2023-04-01T00:53:25;95003.50;;;7.02;78.92
49451;BME280;35336;48.400;10.886;2023-04-01T00:53:47;95013.69;;;7.12;78.95
49451;BME280;35336;48.400;10.886;2023-04-01T00:54:04;95020.63;;;7.13;78.92
49451;BME280;35336;48.400;10.886;2023-04-01T00:54:21;95007.19;;;7.08;78.89
49451;BME280;35336;48.400;10.886;2023-04-01T00:54:39;94984.38;;;6.93;78.73
49451;BME280;35336;48.400;10.886;2023-04-01T00:54:57;95012.47;;;7.08;79.05
49451;BME280;35336;48.400;10.886;2023-04-01T00:55:16;95003.09;;;7.05;78.69
49451;BME280;35336;48.400;10.886;2023-04-01T00:55:37;95020.00;;;7.11;78.77
49451;BME280;35336;48.400;10.886;2023-04-01T00:55:59;95014.91;;;7.09;78.78
49451;BME280;35336;48.400;10.886;2023-04-01T00:56:19;95014.47;;;7.12;78.75
49451;BME280;35336;48.400;10.886;2023-04-01T00:56:39;94992.69;;;7.04;78.82
49451;BME280;35336;48.400;10.886;2023-04-01T00:57:02;94994.16;;;6.99;78.78
49451;BME280;35336;48.400;10.886;2023-04-01T00:57:23;95003.50;;;7.02;78.62
49451;BME280;35336;48.400;10.886;2023-04-01T00:57:39;95032.44;;;7.10;78.50
49451;BME280;35336;48.400;10.886;2023-04-01T00:57:58;95015.72;;;7.10;78.75
49451;BME280;35336;48.400;10.886;2023-04-01T00:58:17;95019.38;;;7.09;78.53
49451;BME280;35336;48.400;10.886;2023-04-01T00:58:36;95010.63;;;7.08;78.88
49451;BME280;35336;48.400;10.886;2023-04-01T00:59:02;94996.00;;;6.92;78.57
49451;BME280;35336;48.400;10.886;2023-04-01T00:59:23;95014.91;;;7.09;78.77
49451;BME280;35336;48.400;10.886;2023-04-01T00:59:42;94990.69;;;6.92;79.04
49451;BME280;35336;48.400;10.886;2023-04-01T00:59:58;95009.03;;;7.01;78.63
49451;BME280;35336;48.400;10.886;2023-04-01T01:00:14;95019.00;;;6.98;79.03
49451;BME280;35336;48.400;10.886;2023-04-01T01:00:30;95001.25;;;6.99;78.79
49451;BME280;35336;48.400;10.886;2023-04-01T01:00:46;95027.97;;;7.04;78.82
49451;BME280;35336;48.400;10.886;2023-04-01T01:01:04;95012.06;;;6.97;78.59
49451;BME280;35336;48.400;10.886;2023-04-01T01:01:22;95016.97;;;7.01;78.96
49451;BME280;35336;48.400;10.886;2023-04-01T01:01:38;95018.81;;;7.07;78.90
49451;BME280;35336;48.400;10.886;2023-04-01T01:01:54;95011.88;;;7.06;78.60
49451;BME280;35336;48.400;10.886;2023-04-01T01:02:11;95018.00;;;6.99;79.06
49451;BME280;35336;48.400;10.886;2023-04-01T01:02:27;95009.22;;;6.99;78.93
49451;BME280;35336;48.400;10.886;2023-04-01T01:02:44;95019.38;;;7.09;78.70
49451;BME280;35336;48.400;10.886;2023-04-01T01:02:59;95016.53;;;7.04;78.71
49451;BME280;35336;48.400;10.886;2023-04-01T01:03:15;95006.38;;;7.01;78.63
49451;BME280;35336;48.400;10.886;2023-04-01T01:03:30;95010.63;;;7.02;78.50
49451;BME280;35336;48.400;10.886;2023-04-01T01:03:45;95013.28;;;7.02;78.39
49451;BME280;35336;48.400;10.886;2023-04-01T01:04:01;95012.47;;;7.08;78.20
49451;BME280;35336;48.400;10.886;2023-04-01T01:04:30;94993.13;;;6.94;78.14
49451;BME280;35336;48.400;10.886;2023-04-01T01:04:46;94990.06;;;6.90;78.40
49451;BME280;35336;48.400;10.886;2023-04-01T01:05:01;95019.78;;;7.12;78.29
49451;BME280;35336;48.400;10.886;2023-04-01T01:05:18;95014.69;;;7.11;78.69
49451;BME280;35336;48.400;10.886;2023-04-01T01:06:42;95019.19;;;7.10;78.22
49451;BME280;35336;48.400;10.886;2023-04-01T01:07:44;95038.56;;;7.11;78.15
49451;BME280;35336;48.400;10.886;2023-04-01T01:08:28;95019.38;;;7.09;78.21
49451;BME280;35336;48.400;10.886;2023-04-01T01:09:01;95008.59;;;7.04;78.22
49451;BME280;35336;48.400;10.886;2023-04-01T01:10:49;94999.00;;;7.03;78.17
49451;BME280;35336;48.400;10.886;2023-04-01T01:11:07;95020.84;;;7.11;78.14
49451;BME280;35336;48.400;10.886;2023-04-01T01:11:32;95006.97;;;7.03;77.94
49451;BME280;35336;48.400;10.886;2023-04-01T01:11:55;94998.41;;;7.07;78.13
49451;BME280;35336;48.400;10.886;2023-04-01T01:12:48;95010.00;;;7.13;78.04
49451;BME280;35336;48.400;10.886;2023-04-01T01:13:43;94987.78;;;7.07;77.79
49451;BME280;35336;48.400;10.886;2023-04-01T01:14:21;94986.56;;;7.10;77.94
49451;BME280;35336;48.400;10.886;2023-04-01T01:14:55;94988.63;;;7.08;77.70
49451;BME280;35336;48.400;10.886;2023-04-01T01:15:39;94978.25;;;6.99;77.82
49451;BME280;35336;48.400;10.886;2023-04-01T01:16:22;94988.63;;;7.08;77.60
49451;BME280;35336;48.400;10.886;2023-04-01T01:16:42;94994.50;;;7.10;77.71
49451;BME280;35336;48.400;10.886;2023-04-01T01:17:04;94997.38;;;7.08;78.02
49451;BME280;35336;48.400;10.886;2023-04-01T01:18:06;94998.41;;;7.14;78.05
49451;BME280;35336;48.400;10.886;2023-04-01T01:19:47;94994.72;;;7.15;78.26
49451;BME280;35336;48.400;10.886;2023-04-01T01:21:32;94982.94;;;7.04;78.06
49451;BME280;35336;48.400;10.886;2023-04-01T01:26:53;94980.91;;;6.99;78.61
49451;BME280;35336;48.400;10.886;2023-04-01T01:27:11;94984.75;;;7.04;78.44
49451;BME280;35336;48.400;10.886;2023-04-01T01:27:28;94980.69;;;7.01;78.20
49451;BME280;35336;48.400;10.886;2023-04-01T01:27:51;94997.59;;;7.00;78.61
49451;BME280;35336;48.400;10.886;2023-04-01T01:29:22;95000.03;;;7.08;78.39
49451;BME280;35336;48.400;10.886;2023-04-01T01:32:07;94996.56;;;7.08;78.35
49451;BME280;35336;48.400;10.886;2023-04-01T01:33:25;94994.13;;;7.06;78.52
49451;BME280;35336;48.400;10.886;2023-04-01T01:35:20;95004.13;;;7.04;78.90
49451;BME280;35336;48.400;10.886;2023-04-01T01:36:09;95005.94;;;7.04;78.79
49451;BME280;35336;48.400;10.886;2023-04-01T01:36:19;95004.53;;;7.01;78.69
49451;BME280;35336;48.400;10.886;2023-04-01T01:36:37;94981.72;;;6.87;78.88
49451;BME280;35336;48.400;10.886;2023-04-01T01:36:59;94984.78;;;6.90;78.95
49451;BME280;35336;48.400;10.886;2023-04-01T01:37:18;94968.28;;;6.81;79.19
49451;BME280;35336;48.400;10.886;2023-04-01T01:37:37;94990.06;;;6.90;79.24
49451;BME280;35336;48.400;10.886;2023-04-01T01:37:57;94995.56;;;6.95;79.39
49451;BME280;35336;48.400;10.886;2023-04-01T01:38:17;94988.44;;;6.89;79.22
49451;BME280;35336;48.400;10.886;2023-04-01T01:38:34;94988.44;;;6.89;79.31
49451;BME280;35336;48.400;10.886;2023-04-01T01:38:50;94990.69;;;6.92;79.41
49451;BME280;35336;48.400;10.886;2023-04-01T01:39:08;95010.88;;;6.93;79.21
49451;BME280;35336;48.400;10.886;2023-04-01T01:39:26;95000.06;;;6.95;79.37
49451;BME280;35336;48.400;10.886;2023-04-01T01:39:47;94971.97;;;6.80;79.37
49451;BME280;35336;48.400;10.886;2023-04-01T01:40:06;95000.28;;;6.93;79.59
49451;BME280;35336;48.400;10.886;2023-04-01T01:40:24;94983.97;;;6.83;79.18
49451;BME280;35336;48.400;10.886;2023-04-01T01:40:43;94994.34;;;6.84;79.62
49451;BME280;35336;48.400;10.886;2023-04-01T01:41:01;94990.06;;;6.83;79.18
49451;BME280;35336;48.400;10.886;2023-04-01T01:41:19;94973.78;;;6.80;79.21
49451;BME280;35336;48.400;10.886;2023-04-01T01:41:37;94982.34;;;6.82;79.58
49451;BME280;35336;48.400;10.886;2023-04-01T01:41:57;95003.09;;;6.92;79.43
49451;BME280;35336;48.400;10.886;2023-04-01T01:42:16;95019.84;;;6.92;79.53
49451;BME280;35336;48.400;10.886;2023-04-01T01:42:35;95003.09;;;6.92;79.29
49451;BME280;35336;48.400;10.886;2023-04-01T01:42:55;94994.97;;;6.93;79.46
49451;BME280;35336;48.400;10.886;2023-04-01T01:43:14;94986.81;;;6.95;79.32
49451;BME280;35336;48.400;10.886;2023-04-01T01:43:40;94994.75;;;6.95;79.31
49451;BME280;35336;48.400;10.886;2023-04-01T01:43:59;94997.63;;;6.93;79.43
49451;BME280;35336;48.400;10.886;2023-04-01T01:44:17;94984.78;;;6.83;79.23
49451;BME280;35336;48.400;10.886;2023-04-01T01:44:33;94982.53;;;6.87;79.12
49451;BME280;35336;48.400;10.886;2023-04-01T01:44:52;94981.94;;;6.85;79.36
49451;BME280;35336;48.400;10.886;2023-04-01T01:45:09;94990.66;;;6.99;79.39
49451;BME280;35336;48.400;10.886;2023-04-01T01:45:28;94976.22;;;6.88;79.31
49451;BME280;35336;48.400;10.886;2023-04-01T01:45:48;94980.50;;;6.89;79.09
49451;BME280;35336;48.400;10.886;2023-04-01T01:46:12;94977.44;;;6.86;79.34
49451;BME280;35336;48.400;10.886;2023-04-01T01:46:30;94979.88;;;6.87;78.98
49451;BME280;35336;48.400;10.886;2023-04-01T01:46:46;94972.97;;;6.86;79.06
49451;BME280;35336;48.400;10.886;2023-04-01T01:47:02;94981.09;;;6.84;78.84
49451;BME280;35336;48.400;10.886;2023-04-01T01:47:19;94984.38;;;6.93;79.18
49451;BME280;35336;48.400;10.886;2023-04-01T01:47:36;94967.47;;;6.88;79.05
49451;BME280;35336;48.400;10.886;2023-04-01T01:47:54;94974.41;;;6.82;79.13
49451;BME280;35336;48.400;10.886;2023-04-01T01:48:12;94969.72;;;6.84;79.03
49451;BME280;35336;48.400;10.886;2023-04-01T01:48:28;94966.03;;;6.85;79.19
49451;BME280;35336;48.400;10.886;2023-04-01T01:48:45;94985.97;;;6.94;79.12
49451;BME280;35336;48.400;10.886;2023-04-01T01:49:03;94987.03;;;6.93;78.98
49451;BME280;35336;48.400;10.886;2023-04-01T01:49:19;94979.88;;;6.87;78.88
49451;BME280;35336;48.400;10.886;2023-04-01T01:49:36;94984.78;;;6.90;79.36
49451;BME280;35336;48.400;10.886;2023-04-01T01:49:54;94995.38;;;6.90;78.82
49451;BME280;35336;48.400;10.886;2023-04-01T01:50:11;94965.63;;;6.75;79.23
49451;BME280;35336;48.400;10.886;2023-04-01T01:50:27;94977.25;;;6.80;79.41
49451;BME280;35336;48.400;10.886;2023-04-01T01:50:44;94999.47;;;6.86;78.94
49451;BME280;35336;48.400;10.886;2023-04-01T01:51:01;94989.69;;;6.87;79.54
49451;BME280;35336;48.400;10.886;2023-04-01T01:51:17;94991.91;;;6.76;79.47
49451;BME280;35336;48.400;10.886;2023-04-01T01:51:34;94987.22;;;6.78;79.47
49451;BME280;35336;48.400;10.886;2023-04-01T01:51:49;94987.25;;;6.85;79.33
49451;BME280;35336;48.400;10.886;2023-04-01T01:52:04;94985.19;;;6.74;79.08
49451;BME280;35336;48.400;10.886;2023-04-01T01:52:21;94975.44;;;6.74;79.34
49451;BME280;35336;48.400;10.886;2023-04-01T01:52:37;94978.88;;;6.75;79.54